This is the latest recevied weather packets stored in our database for station/object HS1WDC-1. If no packets are shown the sender has not sent any weather packets the latest 10 day(s).
| Time | Temp. | Humidity | Pressure | Rain* | Wind** | Luminosity | Snow |
|---|---|---|---|---|---|---|---|
| 1778268516 | 32.22° C | 69% | 1008 hPa | - | - | 0 W/m² | - |
| 1778267592 | 32.22° C | 68% | 1008 hPa | - | - | 0 W/m² | - |
| 1778266668 | 32.22° C | 70% | 1008 hPa | - | - | 0 W/m² | - |
| 1778265744 | 31.67° C | 70% | 1008 hPa | - | - | 0 W/m² | - |
| 1778264819 | 32.22° C | 69% | 1008 hPa | - | - | 0 W/m² | - |
| 1778263895 | 32.22° C | 70% | 1008 hPa | - | - | 0 W/m² | - |
| 1778262971 | 32.22° C | 70% | 1009 hPa | - | - | 0 W/m² | - |
| 1778262046 | 32.22° C | 69% | 1009 hPa | - | - | 0 W/m² | - |
| 1778261122 | 32.22° C | 70% | 1009 hPa | - | - | 0 W/m² | - |
| 1778260197 | 32.22° C | 69% | 1009 hPa | - | - | 0 W/m² | - |
| 1778259273 | 32.22° C | 68% | 1009 hPa | - | - | 0 W/m² | - |
| 1778258349 | 32.78° C | 67% | 1009 hPa | - | - | 0 W/m² | - |
| 1778257424 | 32.78° C | 66% | 1009 hPa | - | - | 0 W/m² | - |
| 1778255576 | 32.22° C | 69% | 1010 hPa | - | - | 0 W/m² | - |
| 1778254651 | 33.33° C | 65% | 1010 hPa | - | - | 0 W/m² | - |
| 1778253727 | 32.78° C | 67% | 1010 hPa | - | - | 0 W/m² | - |
| 1778252802 | 33.33° C | 64% | 1010 hPa | - | - | 0 W/m² | - |
| 1778251878 | 33.33° C | 64% | 1010 hPa | - | - | 0 W/m² | - |
| 1778250954 | 33.33° C | 64% | 1010 hPa | - | - | 0 W/m² | - |
| 1778250030 | 33.33° C | 63% | 1010 hPa | - | - | 0 W/m² | - |
| 1778249105 | 32.78° C | 67% | 1009 hPa | - | - | 0 W/m² | - |
| 1778247257 | 32.22° C | 66% | 1009 hPa | - | - | 0 W/m² | - |
| 1778246332 | 32.78° C | 66% | 1009 hPa | - | - | 0 W/m² | - |
| 1778245408 | 32.78° C | 65% | 1008 hPa | - | - | 0 W/m² | - |
| 1778244484 | 32.78° C | 64% | 1008 hPa | - | - | 0 W/m² | - |
* Rain since midnight (hover to see other rain measurements)
** Current wind speed in m/s (hover to see current wind gust speed)